createdAt,value
2023-05-13T00:01:16.811Z,11.40
2023-05-13T00:03:51.938Z,11.40
2023-05-13T00:06:26.084Z,11.40
2023-05-13T00:09:00.545Z,11.90
2023-05-13T00:11:35.998Z,11.60
2023-05-13T00:14:12.126Z,11.50
2023-05-13T00:16:46.487Z,11.50
2023-05-13T00:19:20.672Z,11.40
2023-05-13T00:21:54.789Z,11.50
2023-05-13T00:24:28.950Z,11.40
2023-05-13T00:27:03.004Z,11.40
2023-05-13T00:29:38.488Z,11.80
2023-05-13T00:32:12.597Z,11.40
2023-05-13T00:34:46.876Z,11.40
2023-05-13T00:37:21.068Z,12.90
2023-05-13T00:39:55.212Z,11.40
2023-05-13T00:42:29.571Z,12.20
2023-05-13T00:45:06.429Z,12.40
2023-05-13T00:47:41.201Z,11.30
2023-05-13T00:50:15.982Z,12.60
2023-05-13T00:52:52.060Z,11.30
2023-05-13T00:55:26.688Z,11.40
2023-05-13T00:58:01.000Z,11.40
2023-05-13T01:00:41.136Z,11.50
2023-05-13T01:03:22.756Z,11.70
2023-05-13T01:06:06.922Z,11.40
2023-05-13T01:08:53.300Z,11.40
2023-05-13T01:11:31.081Z,11.30
2023-05-13T01:14:12.663Z,11.30
2023-05-13T01:16:54.974Z,12.10
2023-05-13T01:19:40.867Z,11.20
2023-05-13T01:22:16.260Z,11.10
2023-05-13T01:24:50.902Z,11.00
2023-05-13T01:27:25.043Z,11.00
2023-05-13T01:29:59.246Z,11.00
2023-05-13T01:32:33.738Z,10.90
2023-05-13T01:35:10.526Z,10.80
2023-05-13T01:37:46.476Z,10.70
2023-05-13T01:40:31.304Z,10.70
2023-05-13T01:43:06.612Z,10.60
2023-05-13T01:45:40.630Z,10.50
2023-05-13T01:48:14.814Z,11.20
2023-05-13T01:50:48.910Z,11.40
2023-05-13T01:53:24.459Z,10.90
2023-05-13T01:55:58.529Z,12.50
2023-05-13T01:58:32.663Z,12.10
2023-05-13T02:01:06.809Z,10.90
2023-05-13T02:03:41.086Z,10.90
2023-05-13T02:06:15.262Z,10.90
2023-05-13T02:08:50.685Z,10.90
2023-05-13T02:11:24.747Z,12.50
2023-05-13T02:13:58.852Z,11.10
2023-05-13T02:16:33.186Z,11.00
2023-05-13T02:19:07.718Z,11.70
2023-05-13T02:21:43.564Z,11.10
2023-05-13T02:24:19.039Z,11.20
2023-05-13T02:26:53.175Z,9.90
2023-05-13T02:29:27.421Z,11.10
2023-05-13T02:32:01.794Z,11.10
2023-05-13T02:34:35.984Z,11.00
2023-05-13T02:37:10.364Z,11.00
2023-05-13T02:39:45.777Z,10.90
2023-05-13T02:42:19.806Z,11.00
2023-05-13T02:44:54.034Z,11.00
2023-05-13T02:47:28.303Z,11.10
2023-05-13T02:50:02.471Z,11.00
2023-05-13T02:52:36.638Z,11.10
2023-05-13T02:55:12.493Z,11.00
2023-05-13T02:57:46.679Z,12.20
2023-05-13T03:00:21.350Z,11.80
2023-05-13T03:02:56.056Z,11.30
2023-05-13T03:05:30.253Z,12.00
2023-05-13T03:08:04.845Z,11.10
2023-05-13T03:10:40.242Z,11.00
2023-05-13T03:13:14.343Z,11.80
2023-05-13T03:15:48.462Z,10.90
2023-05-13T03:18:22.693Z,12.10
2023-05-13T03:20:56.875Z,10.90
2023-05-13T03:23:31.121Z,11.20
2023-05-13T03:26:06.664Z,10.90
2023-05-13T03:28:40.708Z,10.90
2023-05-13T03:31:15.009Z,12.90
2023-05-13T03:33:49.112Z,10.90
2023-05-13T03:36:23.158Z,11.40
2023-05-13T03:38:57.271Z,10.90
2023-05-13T03:41:32.752Z,12.30
2023-05-13T03:44:07.007Z,11.00
2023-05-13T03:46:41.154Z,11.00
2023-05-13T03:49:15.256Z,11.10
2023-05-13T03:51:49.451Z,11.10
2023-05-13T03:54:23.617Z,11.60
2023-05-13T03:56:59.020Z,11.90
2023-05-13T03:59:33.084Z,10.90
2023-05-13T04:02:07.336Z,10.80
2023-05-13T04:04:41.608Z,10.80
2023-05-13T04:07:15.721Z,12.90
2023-05-13T04:09:49.863Z,10.80
2023-05-13T04:12:25.473Z,10.80
2023-05-13T04:14:59.706Z,10.90
2023-05-13T04:17:33.881Z,10.90
2023-05-13T04:20:10.965Z,11.00
2023-05-13T04:22:45.052Z,10.70
2023-05-13T04:25:19.446Z,10.80
2023-05-13T04:27:54.967Z,10.80
2023-05-13T04:30:29.213Z,10.80
2023-05-13T04:33:03.428Z,10.70
2023-05-13T04:35:37.812Z,11.10
2023-05-13T04:38:13.550Z,12.00
2023-05-13T04:40:47.999Z,10.80
2023-05-13T04:43:23.913Z,10.70
2023-05-13T04:45:58.061Z,10.70
2023-05-13T04:48:32.230Z,13.00
2023-05-13T04:51:06.958Z,12.00
2023-05-13T04:53:41.476Z,10.70
2023-05-13T04:56:16.686Z,10.70
2023-05-13T04:58:52.157Z,11.40
2023-05-13T05:01:26.365Z,10.80
2023-05-13T05:04:00.878Z,12.30
2023-05-13T05:06:35.008Z,10.80
2023-05-13T05:09:09.484Z,12.20
2023-05-13T05:11:43.541Z,11.90
2023-05-13T05:14:19.038Z,10.80
2023-05-13T05:16:53.227Z,11.30
2023-05-13T05:19:27.367Z,13.10
2023-05-13T05:22:01.618Z,11.00
2023-05-13T05:24:35.696Z,11.00
2023-05-13T05:27:09.700Z,12.40
2023-05-13T05:29:45.137Z,11.80
2023-05-13T05:32:19.358Z,10.90
2023-05-13T05:34:53.479Z,11.00
2023-05-13T05:37:27.863Z,12.00
2023-05-13T05:40:14.220Z,11.50
2023-05-13T05:42:48.407Z,11.00
2023-05-13T05:45:23.939Z,12.30
2023-05-13T05:47:58.374Z,11.20
2023-05-13T05:50:33.577Z,11.60
2023-05-13T05:53:07.872Z,11.20
2023-05-13T05:55:42.253Z,11.30
2023-05-13T05:58:16.821Z,11.30
2023-05-13T06:00:52.722Z,11.70
2023-05-13T06:03:27.251Z,11.50
2023-05-13T06:06:02.993Z,11.50
2023-05-13T06:08:37.266Z,11.50
2023-05-13T06:11:11.342Z,11.70
2023-05-13T06:13:45.590Z,11.60
2023-05-13T06:16:21.047Z,11.70
2023-05-13T06:18:59.316Z,11.80
2023-05-13T06:21:35.053Z,12.00
2023-05-13T06:24:09.896Z,11.90
2023-05-13T06:26:44.400Z,13.10
2023-05-13T06:29:19.190Z,11.90
2023-05-13T06:31:56.077Z,11.90
2023-05-13T06:34:30.610Z,11.90
2023-05-13T06:37:05.223Z,12.00
2023-05-13T06:39:39.522Z,12.00
2023-05-13T06:42:14.388Z,12.10
2023-05-13T06:44:48.761Z,12.20
2023-05-13T06:47:24.349Z,12.00
2023-05-13T06:49:58.545Z,13.00
2023-05-13T06:52:32.647Z,12.50
2023-05-13T06:55:08.899Z,12.50
2023-05-13T06:57:45.285Z,12.60
2023-05-13T07:00:20.794Z,12.80
2023-05-13T07:02:57.242Z,13.00
2023-05-13T07:05:31.609Z,13.10
2023-05-13T07:08:08.352Z,13.30
2023-05-13T07:10:42.625Z,13.30
2023-05-13T07:13:17.651Z,13.40
2023-05-13T07:15:52.231Z,13.60
2023-05-13T07:18:27.926Z,13.70
2023-05-13T07:21:02.220Z,13.70
2023-05-13T07:23:36.815Z,13.70
2023-05-13T07:26:11.519Z,13.50
2023-05-13T07:28:45.857Z,13.30
2023-05-13T07:31:20.193Z,13.30
2023-05-13T07:33:57.085Z,13.30
2023-05-13T07:36:31.841Z,13.20
2023-05-13T07:39:07.127Z,13.20
2023-05-13T07:41:42.652Z,14.10
2023-05-13T07:44:17.091Z,13.00
2023-05-13T07:46:55.853Z,13.00
2023-05-13T07:49:31.316Z,13.10
2023-05-13T07:52:06.379Z,13.40
2023-05-13T07:54:40.768Z,15.30
2023-05-13T07:57:15.078Z,13.50
2023-05-13T07:59:49.443Z,13.90
2023-05-13T08:02:24.601Z,14.00
2023-05-13T08:05:00.327Z,14.00
2023-05-13T08:07:34.642Z,14.10
2023-05-13T08:10:09.781Z,14.20
2023-05-13T08:12:44.385Z,14.20
2023-05-13T08:15:19.072Z,14.30
2023-05-13T08:17:55.456Z,14.20
2023-05-13T08:20:31.023Z,14.20
2023-05-13T08:23:05.252Z,14.20
2023-05-13T08:25:39.517Z,14.20
2023-05-13T08:28:13.852Z,14.40
2023-05-13T08:30:48.012Z,14.70
2023-05-13T08:33:22.565Z,14.80
2023-05-13T08:36:02.002Z,14.70
2023-05-13T08:38:36.669Z,14.70
2023-05-13T08:41:13.887Z,14.60
2023-05-13T08:43:49.350Z,14.40
2023-05-13T08:46:25.958Z,14.20
2023-05-13T08:49:01.710Z,13.90
2023-05-13T08:51:37.851Z,13.70
2023-05-13T08:54:12.165Z,13.90
2023-05-13T08:56:46.337Z,13.60
2023-05-13T08:59:20.452Z,13.60
2023-05-13T09:01:57.334Z,13.70
2023-05-13T09:04:32.370Z,13.70
2023-05-13T09:07:08.211Z,13.80
2023-05-13T09:09:42.762Z,13.80
2023-05-13T09:12:47.939Z,13.80
2023-05-13T09:15:24.592Z,13.90
2023-05-13T09:18:03.396Z,13.80
2023-05-13T09:20:38.320Z,13.70
2023-05-13T09:23:16.001Z,13.70
2023-05-13T09:25:50.577Z,13.60
2023-05-13T09:28:24.834Z,13.60
2023-05-13T09:30:59.230Z,13.50
2023-05-13T09:33:33.671Z,13.50
2023-05-13T09:36:09.727Z,13.50
2023-05-13T09:38:45.319Z,14.50
2023-05-13T09:41:21.541Z,13.70
2023-05-13T09:43:57.010Z,13.70
2023-05-13T09:46:34.621Z,13.70
2023-05-13T09:49:08.897Z,13.70
2023-05-13T09:51:45.679Z,13.70
2023-05-13T09:54:21.209Z,14.90
2023-05-13T09:57:01.478Z,14.60
2023-05-13T09:59:36.034Z,13.70
2023-05-13T10:02:16.640Z,13.80
2023-05-13T10:04:51.155Z,13.70
2023-05-13T10:07:26.073Z,13.70
2023-05-13T10:10:05.280Z,13.70
2023-05-13T10:12:42.246Z,13.70
2023-05-13T10:15:16.837Z,13.70
2023-05-13T10:17:52.274Z,13.60
2023-05-13T10:20:27.214Z,13.70
2023-05-13T10:23:01.796Z,13.70
2023-05-13T10:25:37.906Z,13.70
2023-05-13T10:28:12.724Z,15.00
2023-05-13T10:30:47.726Z,13.80
2023-05-13T10:33:22.740Z,13.80
2023-05-13T10:36:12.472Z,13.80
2023-05-13T10:39:15.405Z,13.90
2023-05-13T10:42:42.827Z,14.20
2023-05-13T10:45:18.462Z,14.60
2023-05-13T10:47:52.768Z,14.90
2023-05-13T10:50:27.235Z,15.00
2023-05-13T10:53:03.484Z,15.20
2023-05-13T10:55:45.805Z,15.20
2023-05-13T10:58:24.690Z,16.50
2023-05-13T11:01:16.281Z,15.00
2023-05-13T11:03:55.475Z,15.10
2023-05-13T11:06:35.463Z,15.00
2023-05-13T11:09:14.415Z,14.80
2023-05-13T11:11:49.984Z,14.80
2023-05-13T11:14:27.228Z,14.90
2023-05-13T11:17:12.474Z,15.00
2023-05-13T11:19:48.552Z,15.00
2023-05-13T11:22:24.973Z,15.00
2023-05-13T11:25:08.217Z,15.10
2023-05-13T11:27:44.197Z,15.20
2023-05-13T11:30:27.155Z,15.30
2023-05-13T11:33:08.436Z,15.20
2023-05-13T11:35:43.796Z,15.10
2023-05-13T11:38:25.758Z,15.10
2023-05-13T11:40:59.946Z,15.10
2023-05-13T11:43:34.982Z,15.20
2023-05-13T11:46:11.265Z,15.20
2023-05-13T11:48:45.458Z,15.30
2023-05-13T11:51:19.593Z,15.20
2023-05-13T11:54:00.914Z,15.30
2023-05-13T11:56:35.015Z,15.50
2023-05-13T11:59:15.871Z,17.50
2023-05-13T12:02:02.168Z,15.80
2023-05-13T12:04:36.588Z,15.80
2023-05-13T12:07:13.090Z,15.80
2023-05-13T12:09:47.337Z,15.90
2023-05-13T12:12:22.038Z,15.90
2023-05-13T12:14:57.730Z,15.90
2023-05-13T12:17:34.224Z,15.90
2023-05-13T12:20:17.199Z,15.90
2023-05-13T12:22:57.587Z,16.00
2023-05-13T12:25:43.812Z,15.80
2023-05-13T12:28:19.977Z,15.80
2023-05-13T12:30:56.297Z,15.70
2023-05-13T12:33:34.663Z,15.90
2023-05-13T12:36:21.086Z,16.60
2023-05-13T12:39:00.152Z,16.00
2023-05-13T12:41:36.876Z,16.10
2023-05-13T12:44:14.848Z,16.20
2023-05-13T12:46:52.493Z,16.50
2023-05-13T12:49:28.327Z,16.40
2023-05-13T12:52:04.857Z,16.30
2023-05-13T12:54:38.897Z,16.10
2023-05-13T12:57:13.093Z,16.00
2023-05-13T12:59:47.472Z,15.70
2023-05-13T13:02:21.560Z,15.60
2023-05-13T13:04:56.963Z,15.50
2023-05-13T13:07:31.037Z,15.30
2023-05-13T13:10:07.023Z,15.30
2023-05-13T13:12:41.154Z,15.30
2023-05-13T13:15:15.242Z,15.40
2023-05-13T13:17:49.443Z,15.50
2023-05-13T13:20:25.374Z,15.40
2023-05-13T13:22:59.846Z,15.50
2023-05-13T13:25:34.145Z,15.70
2023-05-13T13:28:08.215Z,15.80
2023-05-13T13:30:46.483Z,16.00
2023-05-13T13:33:21.321Z,17.80
2023-05-13T13:35:56.886Z,19.20
2023-05-13T13:38:30.960Z,17.00
2023-05-13T13:41:05.135Z,17.00
2023-05-13T13:43:39.532Z,17.00
2023-05-13T13:46:13.821Z,16.80
2023-05-13T13:48:48.013Z,16.70
2023-05-13T13:51:23.531Z,16.50
2023-05-13T13:53:57.739Z,16.40
2023-05-13T13:56:31.931Z,16.30
2023-05-13T13:59:06.343Z,16.20
2023-05-13T14:01:40.500Z,16.10
2023-05-13T14:04:16.124Z,16.20
2023-05-13T14:06:53.378Z,16.20
2023-05-13T14:09:27.452Z,16.30
2023-05-13T14:12:01.563Z,16.30
2023-05-13T14:14:35.689Z,16.60
2023-05-13T14:17:11.147Z,16.90
2023-05-13T14:19:46.769Z,17.20
2023-05-13T14:22:23.635Z,17.50
2023-05-13T14:24:57.874Z,17.60
2023-05-13T14:27:34.041Z,17.60
2023-05-13T14:30:09.736Z,17.60
2023-05-13T14:32:45.219Z,17.60
2023-05-13T14:35:19.789Z,17.80
2023-05-13T14:37:55.230Z,18.00
2023-05-13T14:40:29.366Z,18.20
2023-05-13T14:43:03.484Z,18.00
2023-05-13T14:45:37.713Z,17.70
2023-05-13T14:48:12.145Z,17.50
2023-05-13T14:50:47.618Z,17.00
2023-05-13T14:53:23.057Z,16.70
2023-05-13T14:55:57.340Z,16.40
2023-05-13T14:58:31.558Z,17.00
2023-05-13T15:01:05.956Z,16.80
2023-05-13T15:03:40.267Z,15.80
2023-05-13T15:06:14.400Z,15.60
2023-05-13T15:08:49.817Z,17.40
2023-05-13T15:11:24.784Z,15.40
2023-05-13T15:13:58.880Z,15.20
2023-05-13T15:16:33.176Z,15.10
2023-05-13T15:19:08.923Z,15.10
2023-05-13T15:21:43.217Z,15.00
2023-05-13T15:24:18.699Z,14.90
2023-05-13T15:26:52.915Z,15.00
2023-05-13T15:29:27.108Z,15.00
2023-05-13T15:32:01.222Z,15.20
2023-05-13T15:34:35.479Z,15.30
2023-05-13T15:37:09.558Z,15.50
2023-05-13T15:39:45.828Z,15.70
2023-05-13T15:42:19.909Z,16.40
2023-05-13T15:44:54.021Z,16.10
2023-05-13T15:47:28.239Z,16.30
2023-05-13T15:50:02.514Z,16.50
2023-05-13T15:52:36.669Z,16.70
2023-05-13T15:55:12.279Z,16.80
2023-05-13T16:00:21.376Z,19.90
2023-05-13T16:02:55.824Z,16.50
2023-05-13T16:05:30.068Z,16.60
2023-05-13T16:08:04.138Z,16.50
2023-05-13T16:10:39.586Z,16.50
2023-05-13T16:13:13.658Z,16.50
2023-05-13T16:15:47.982Z,16.90
2023-05-13T16:18:22.282Z,16.30
2023-05-13T16:20:56.505Z,16.20
2023-05-13T16:23:30.566Z,16.10
2023-05-13T16:26:06.611Z,16.00
2023-05-13T16:28:40.754Z,15.90
2023-05-13T16:31:14.932Z,17.30
2023-05-13T16:33:49.063Z,15.80
2023-05-13T16:36:23.931Z,15.70
2023-05-13T16:38:58.035Z,15.60
2023-05-13T16:41:35.402Z,15.60
2023-05-13T16:44:09.502Z,15.50
2023-05-13T16:46:43.780Z,13.50
2023-05-13T16:49:18.083Z,16.70
2023-05-13T16:51:52.200Z,15.40
2023-05-13T16:54:26.293Z,15.40
2023-05-13T16:57:01.910Z,15.40
2023-05-13T16:59:36.019Z,15.40
2023-05-13T17:02:10.274Z,17.20
2023-05-13T17:04:44.480Z,15.30
2023-05-13T17:07:18.546Z,15.20
2023-05-13T17:09:52.631Z,15.20
2023-05-13T17:12:28.309Z,15.20
2023-05-13T17:15:03.497Z,15.10
2023-05-13T17:17:37.727Z,15.00
2023-05-13T17:20:13.371Z,14.90
2023-05-13T17:22:47.698Z,14.90
2023-05-13T17:25:21.882Z,14.80
2023-05-13T17:27:57.244Z,14.80
2023-05-13T17:30:31.343Z,11.70
2023-05-13T17:33:05.624Z,14.80
2023-05-13T17:35:39.965Z,14.90
2023-05-13T17:38:14.163Z,15.00
2023-05-13T17:40:48.271Z,14.90
2023-05-13T17:43:24.225Z,14.90
2023-05-13T17:45:58.485Z,14.90
2023-05-13T17:48:33.119Z,14.90
2023-05-13T17:51:07.550Z,14.90
2023-05-13T17:53:41.757Z,14.90
2023-05-13T17:56:16.084Z,14.90
2023-05-13T17:58:51.671Z,14.70
2023-05-13T18:01:26.198Z,14.80
2023-05-13T18:04:00.681Z,14.70
2023-05-13T18:06:35.648Z,15.00
2023-05-13T18:09:11.285Z,14.60
2023-05-13T18:11:46.841Z,14.60
2023-05-13T18:14:22.550Z,14.40
2023-05-13T18:16:56.651Z,14.40
2023-05-13T18:19:30.789Z,14.40
2023-05-13T18:22:06.475Z,14.30
2023-05-13T18:24:41.468Z,14.30
2023-05-13T18:27:16.090Z,14.30
2023-05-13T18:29:51.717Z,14.20
2023-05-13T18:32:27.148Z,14.30
2023-05-13T18:35:01.405Z,14.30
2023-05-13T18:37:36.361Z,13.50
2023-05-13T18:40:13.854Z,14.20
2023-05-13T18:42:48.025Z,14.10
2023-05-13T18:45:23.541Z,14.10
2023-05-13T18:47:57.874Z,14.00
2023-05-13T18:50:32.127Z,14.00
2023-05-13T18:53:06.431Z,13.90
2023-05-13T18:55:40.687Z,13.80
2023-05-13T18:58:14.940Z,13.80
2023-05-13T19:00:51.166Z,13.70
2023-05-13T19:03:27.607Z,13.60
2023-05-13T19:06:01.832Z,13.60
2023-05-13T19:08:36.079Z,13.40
2023-05-13T19:11:13.705Z,13.30
2023-05-13T19:13:48.194Z,13.10
2023-05-13T19:18:58.419Z,13.10
2023-05-13T19:21:32.659Z,13.40
2023-05-13T19:24:07.756Z,13.00
2023-05-13T19:26:44.532Z,13.00
2023-05-13T19:29:18.614Z,13.10
2023-05-13T19:31:56.385Z,13.10
2023-05-13T19:34:31.071Z,13.00
2023-05-13T19:37:06.450Z,13.00
2023-05-13T19:39:40.702Z,12.90
2023-05-13T19:42:16.402Z,12.70
2023-05-13T19:44:50.818Z,13.60
2023-05-13T19:47:27.791Z,12.60
2023-05-13T19:50:01.968Z,12.60
2023-05-13T19:52:36.291Z,14.00
2023-05-13T19:55:12.617Z,12.30
2023-05-13T19:57:47.471Z,12.20
2023-05-13T20:00:23.216Z,12.10
2023-05-13T20:02:59.049Z,12.00
2023-05-13T20:05:33.260Z,12.70
2023-05-13T20:08:16.326Z,13.50
2023-05-13T20:10:50.523Z,11.90
2023-05-13T20:13:24.604Z,13.10
2023-05-13T20:15:58.756Z,11.80
2023-05-13T20:18:34.668Z,12.80
2023-05-13T20:21:09.861Z,11.60
2023-05-13T20:23:44.124Z,11.60
2023-05-13T20:26:18.393Z,11.90
2023-05-13T20:28:53.288Z,11.60
2023-05-13T20:31:27.708Z,14.00
2023-05-13T20:34:03.918Z,11.80
2023-05-13T20:36:38.720Z,13.20
2023-05-13T20:39:13.245Z,12.00
2023-05-13T20:41:47.430Z,11.90
2023-05-13T20:44:21.737Z,12.50
2023-05-13T20:46:55.920Z,12.00
2023-05-13T20:49:31.467Z,12.00
2023-05-13T20:52:09.109Z,12.10
2023-05-13T20:54:44.316Z,12.10
2023-05-13T20:57:18.490Z,12.10
2023-05-13T20:59:52.781Z,12.10
2023-05-13T21:02:27.117Z,13.10
2023-05-13T21:05:02.681Z,12.20
2023-05-13T21:07:36.994Z,13.20
2023-05-13T21:10:12.648Z,13.80
2023-05-13T21:12:48.119Z,12.10
2023-05-13T21:15:22.392Z,12.10
2023-05-13T21:17:56.764Z,12.10
2023-05-13T21:20:33.543Z,12.20
2023-05-13T21:23:08.548Z,13.10
2023-05-13T21:25:42.885Z,12.20
2023-05-13T21:28:18.969Z,12.20
2023-05-13T21:30:53.077Z,13.50
2023-05-13T21:33:27.306Z,12.20
2023-05-13T21:36:02.854Z,12.20
2023-05-13T21:38:37.088Z,12.10
2023-05-13T21:41:11.807Z,12.00
2023-05-13T21:43:46.004Z,12.10
2023-05-13T21:46:20.297Z,12.00
2023-05-13T21:48:54.486Z,15.50
2023-05-13T21:51:30.311Z,12.20
2023-05-13T21:54:05.013Z,12.20
2023-05-13T21:56:39.199Z,12.20
2023-05-13T21:59:14.043Z,12.20
2023-05-13T22:01:48.386Z,12.20
2023-05-13T22:04:25.630Z,12.30
2023-05-13T22:07:02.858Z,13.80
2023-05-13T22:09:37.303Z,12.20
2023-05-13T22:12:14.496Z,12.20
2023-05-13T22:14:49.525Z,12.10
2023-05-13T22:17:24.066Z,12.10
2023-05-13T22:19:58.287Z,12.10
2023-05-13T22:22:33.983Z,12.00
2023-05-13T22:25:09.487Z,12.60
2023-05-13T22:27:43.660Z,12.00
2023-05-13T22:30:18.095Z,12.70
2023-05-13T22:32:53.075Z,12.00
2023-05-13T22:35:28.888Z,11.90
2023-05-13T22:38:05.034Z,9.00
2023-05-13T22:40:39.249Z,12.10
2023-05-13T22:43:14.416Z,11.90
2023-05-13T22:45:48.597Z,11.90
2023-05-13T22:48:22.726Z,13.70
2023-05-13T22:50:58.413Z,12.00
2023-05-13T22:53:34.001Z,12.70
2023-05-13T22:56:08.979Z,11.90
2023-05-13T22:58:43.050Z,11.90
2023-05-13T23:01:17.328Z,11.90
2023-05-13T23:03:51.541Z,12.40
2023-05-13T23:06:27.692Z,12.20
2023-05-13T23:09:03.563Z,11.70
2023-05-13T23:11:37.923Z,11.80
2023-05-13T23:14:14.456Z,11.80
2023-05-13T23:16:48.708Z,10.00
2023-05-13T23:19:25.279Z,11.80
2023-05-13T23:21:59.478Z,11.70
2023-05-13T23:24:35.075Z,12.80
2023-05-13T23:27:09.567Z,12.60
2023-05-13T23:29:43.739Z,11.70
2023-05-13T23:32:18.028Z,11.80
2023-05-13T23:34:53.408Z,11.80
2023-05-13T23:37:27.995Z,11.70
2023-05-13T23:42:39.078Z,11.70
2023-05-13T23:45:14.601Z,11.80
2023-05-13T23:47:48.766Z,11.70
2023-05-13T23:50:23.146Z,11.80
2023-05-13T23:52:57.439Z,12.20
2023-05-13T23:55:33.144Z,11.90
2023-05-13T23:58:07.253Z,11.70
